地図

経路データ

SID SEASON NUMBER BASIN SUBBASIN NAME ISO_TIME NATURE LAT LON WMO_WIND WMO_PRES WMO_AGENCY TRACK_TYPE DIST2LAND LANDFALL IFLAG USA_AGENCY USA_ATCF_ID USA_LAT USA_LON USA_RECORD USA_STATUS USA_WIND USA_PRES USA_SSHS USA_R34_NE USA_R34_SE USA_R34_SW USA_R34_NW USA_R50_NE USA_R50_SE USA_R50_SW USA_R50_NW USA_R64_NE USA_R64_SE USA_R64_SW USA_R64_NW USA_POCI USA_ROCI USA_RMW USA_EYE TOKYO_LAT TOKYO_LON TOKYO_GRADE TOKYO_WIND TOKYO_PRES TOKYO_R50_DIR TOKYO_R50_LONG TOKYO_R50_SHORT TOKYO_R30_DIR TOKYO_R30_LONG TOKYO_R30_SHORT TOKYO_LAND CMA_LAT CMA_LON CMA_CAT CMA_WIND CMA_PRES HKO_LAT HKO_LON HKO_CAT HKO_WIND HKO_PRES NEWDELHI_LAT NEWDELHI_LON NEWDELHI_GRADE NEWDELHI_WIND NEWDELHI_PRES NEWDELHI_CI NEWDELHI_DP NEWDELHI_POCI REUNION_LAT REUNION_LON REUNION_TYPE REUNION_WIND REUNION_PRES REUNION_TNUM REUNION_CI REUNION_RMW REUNION_R34_NE REUNION_R34_SE REUNION_R34_SW REUNION_R34_NW REUNION_R50_NE REUNION_R50_SE REUNION_R50_SW REUNION_R50_NW REUNION_R64_NE REUNION_R64_SE REUNION_R64_SW REUNION_R64_NW BOM_LAT BOM_LON BOM_TYPE BOM_WIND BOM_PRES BOM_TNUM BOM_CI BOM_RMW BOM_R34_NE BOM_R34_SE BOM_R34_SW BOM_R34_NW BOM_R50_NE BOM_R50_SE BOM_R50_SW BOM_R50_NW BOM_R64_NE BOM_R64_SE BOM_R64_SW BOM_R64_NW BOM_ROCI BOM_POCI BOM_EYE BOM_POS_METHOD BOM_PRES_METHOD NADI_LAT NADI_LON NADI_CAT NADI_WIND NADI_PRES WELLINGTON_LAT WELLINGTON_LON WELLINGTON_WIND WELLINGTON_PRES DS824_LAT DS824_LON DS824_STAGE DS824_WIND DS824_PRES TD9636_LAT TD9636_LON TD9636_STAGE TD9636_WIND TD9636_PRES TD9635_LAT TD9635_LON TD9635_WIND TD9635_PRES TD9635_ROCI NEUMANN_LAT NEUMANN_LON NEUMANN_CLASS NEUMANN_WIND NEUMANN_PRES MLC_LAT MLC_LON MLC_CLASS MLC_WIND MLC_PRES USA_GUST BOM_GUST BOM_GUST_PER REUNION_GUST REUNION_GUST_PER USA_SEAHGT USA_SEARAD_NE USA_SEARAD_SE USA_SEARAD_SW USA_SEARAD_NW STORM_SPEED STORM_DIR
1904202N10150 1904 22 WP MM NOT_NAMED 1904-07-19 13:00:00 NR 9.50000 149.800 main 1326 1320 __________O___ -1 9.50000 149.800 7 9 271
1904202N10150 1904 22 WP MM NOT_NAMED 1904-07-19 15:00:00 NR 9.50529 149.480 main 1320 1311 __________P___ -1 9.50529 149.480 7 10 272
1904202N10150 1904 22 WP MM NOT_NAMED 1904-07-19 18:00:00 NR 9.52352 148.982 main 1311 1306 __________P___ -1 9.52352 148.982 7 10 274
1904202N10150 1904 22 WP MM NOT_NAMED 1904-07-19 21:00:00 NR 9.56889 148.439 main 1315 1312 __________P___ -1 9.56889 148.439 7 11 277
1904202N10150 1904 22 WP MM NOT_NAMED 1904-07-20 00:00:00 NR 9.65785 147.825 main 1322 1322 __________P___ -1 9.65785 147.825 7 13 279
1904202N10150 1904 22 WP MM NOT_NAMED 1904-07-20 01:00:00 NR 9.70000 147.600 main 1322 1322 __________O___ -1 9.70000 147.600 7 14 282
1904202N10150 1904 22 WP MM NOT_NAMED 1904-07-20 03:00:00 NR 9.80505 147.116 main 1333 1333 __________P___ -1 9.80505 147.116 7 16 284
1904202N10150 1904 22 WP MM NOT_NAMED 1904-07-20 06:00:00 NR 10.0065 146.327 main 1356 1356 __________P___ -1 10.0065 146.327 7 17 285
1904202N10150 1904 22 WP MM NOT_NAMED 1904-07-20 09:00:00 NR 10.2466 145.497 main 1383 1394 __________P___ -1 10.2466 145.497 7 17 287
1904202N10150 1904 22 WP MM NOT_NAMED 1904-07-20 12:00:00 NR 10.5098 144.669 main 1427 1429 __________P___ -1 10.5098 144.669 7 17 288
1904202N10150 1904 22 WP MM NOT_NAMED 1904-07-20 13:00:00 NR 10.6000 144.400 main 1443 1443 __________O___ -1 10.6000 144.400 7 16 289
1904202N10150 1904 22 WP MM NOT_NAMED 1904-07-20 15:00:00 NR 10.7687 143.902 main 1476 1476 __________P___ -1 10.7687 143.902 7 15 290
1904202N10150 1904 22 WP MM NOT_NAMED 1904-07-20 18:00:00 NR 11.0347 143.174 main 1515 1512 __________P___ -1 11.0347 143.174 7 15 291
1904202N10150 1904 22 WP MM NOT_NAMED 1904-07-20 21:00:00 NR 11.3136 142.458 main 1521 1518 __________P___ -1 11.3136 142.458 7 15 292
1904202N10150 1904 22 WP MM NOT_NAMED 1904-07-21 00:00:00 NR 11.6022 141.741 main 1528 1528 __________P___ -1 11.6022 141.741 7 15 292
1904202N10150 1904 22 WP MM NOT_NAMED 1904-07-21 01:00:00 NR 11.7000 141.500 main 1531 1524 __________O___ -1 11.7000 141.500 7 16 292
1904202N10150 1904 22 WP MM NOT_NAMED 1904-07-21 03:00:00 NR 11.8914 141.000 main 1530 1525 __________P___ -1 11.8914 141.000 7 16 292
1904202N10150 1904 22 WP MM NOT_NAMED 1904-07-21 06:00:00 NR 12.1850 140.244 main 1532 1499 __________P___ -1 12.1850 140.244 7 16 292
1904202N10150 1904 22 WP MM NOT_NAMED 1904-07-21 09:00:00 NR 12.4863 139.489 main 1499 1418 __________P___ -1 12.4863 139.489 7 16 293
1904202N10150 1904 22 WP MM NOT_NAMED 1904-07-21 12:00:00 NR 12.7953 138.744 main 1418 1398 __________P___ -1 12.7953 138.744 7 16 293
1904202N10150 1904 22 WP MM NOT_NAMED 1904-07-21 13:00:00 NR 12.9000 138.500 main 1398 1348 __________O___ -1 12.9000 138.500 7 16 294
1904202N10150 1904 22 WP MM NOT_NAMED 1904-07-21 15:00:00 NR 13.1132 138.011 main 1348 1279 __________P___ -1 13.1132 138.011 7 16 295
1904202N10150 1904 22 WP MM NOT_NAMED 1904-07-21 18:00:00 NR 13.4397 137.291 main 1279 1214 __________P___ -1 13.4397 137.291 7 15 295
1904202N10150 1904 22 WP MM NOT_NAMED 1904-07-21 21:00:00 NR 13.7687 136.591 main 1214 1146 __________P___ -1 13.7687 136.591 7 15 296
1904202N10150 1904 22 WP MM NOT_NAMED 1904-07-22 00:00:00 NR 14.0936 135.917 main 1146 1127 __________P___ -1 14.0936 135.917 7 15 297
1904202N10150 1904 22 WP MM NOT_NAMED 1904-07-22 01:00:00 NR 14.2000 135.700 main 1127 1089 __________O___ -1 14.2000 135.700 7 14 297
1904202N10150 1904 22 WP MM NOT_NAMED 1904-07-22 03:00:00 NR 14.4051 135.274 main 1089 1033 __________P___ -1 14.4051 135.274 7 14 297
1904202N10150 1904 22 WP MM NOT_NAMED 1904-07-22 06:00:00 NR 14.7070 134.661 main 1033 981 __________P___ -1 14.7070 134.661 7 13 297
1904202N10150 1904 22 WP MM NOT_NAMED 1904-07-22 09:00:00 NR 15.0046 134.070 main 981 931 __________P___ -1 15.0046 134.070 7 13 298
1904202N10150 1904 22 WP MM NOT_NAMED 1904-07-22 12:00:00 NR 15.3010 133.491 main 931 915 __________P___ -1 15.3010 133.491 7 13 298
1904202N10150 1904 22 WP MM NOT_NAMED 1904-07-22 13:00:00 NR 15.4000 133.300 main 915 885 __________O___ -1 15.4000 133.300 7 13 298
1904202N10150 1904 22 WP MM NOT_NAMED 1904-07-22 15:00:00 NR 15.5996 132.911 main 885 842 __________P___ -1 15.5996 132.911 7 13 298
1904202N10150 1904 22 WP MM NOT_NAMED 1904-07-22 18:00:00 NR 15.8993 132.333 main 842 813 __________P___ -1 15.8993 132.333 7 13 298
1904202N10150 1904 22 WP MM NOT_NAMED 1904-07-22 21:00:00 NR 16.1994 131.761 main 813 780 __________P___ -1 16.1994 131.761 7 13 299
1904202N10150 1904 22 WP MM NOT_NAMED 1904-07-23 00:00:00 NR 16.4998 131.190 main 780 770 __________P___ -1 16.4998 131.190 7 13 299
1904202N10150 1904 22 WP MM NOT_NAMED 1904-07-23 01:00:00 NR 16.6000 131.000 main 770 739 __________O___ -1 16.6000 131.000 7 13 297
1904202N10150 1904 22 WP MM NOT_NAMED 1904-07-23 03:00:00 NR 16.7896 130.593 main 739 693 __________P___ -1 16.7896 130.593 7 13 296
1904202N10150 1904 22 WP MM NOT_NAMED 1904-07-23 06:00:00 NR 17.0738 129.982 main 698 663 __________P___ -1 17.0738 129.982 7 13 297
1904202N10150 1904 22 WP MM NOT_NAMED 1904-07-23 09:00:00 NR 17.3687 129.395 main 663 635 __________P___ -1 17.3687 129.395 7 12 300
1904202N10150 1904 22 WP MM NOT_NAMED 1904-07-23 12:00:00 NR 17.6867 128.861 main 642 634 __________P___ -1 17.6867 128.861 7 12 303
1904202N10150 1904 22 WP MM NOT_NAMED 1904-07-23 13:00:00 NR 17.8000 128.700 main 634 626 __________O___ -1 17.8000 128.700 7 11 310
1904202N10150 1904 22 WP MM NOT_NAMED 1904-07-23 15:00:00 NR 18.0538 128.402 main 634 601 __________P___ -1 18.0538 128.402 7 11 315
1904202N10150 1904 22 WP MM NOT_NAMED 1904-07-23 18:00:00 NR 18.4604 128.012 main 601 570 __________P___ -1 18.4604 128.012 7 11 320
1904202N10150 1904 22 WP MM NOT_NAMED 1904-07-23 21:00:00 NR 18.8759 127.678 main 571 544 __________P___ -1 18.8759 127.678 7 10 324
1904202N10150 1904 22 WP MM NOT_NAMED 1904-07-24 00:00:00 NR 19.2750 127.389 main 546 535 __________P___ -1 19.2750 127.389 7 10 326
1904202N10150 1904 22 WP MM NOT_NAMED 1904-07-24 01:00:00 NR 19.4000 127.300 main 537 522 __________O___ -1 19.4000 127.300 7 9 327
1904202N10150 1904 22 WP MM NOT_NAMED 1904-07-24 03:00:00 NR 19.6381 127.142 main 522 515 __________P___ -1 19.6381 127.142 7 8 329
1904202N10150 1904 22 WP MM NOT_NAMED 1904-07-24 06:00:00 NR 19.9705 126.937 main 515 508 __________P___ -1 19.9705 126.937 7 7 329
1904202N10150 1904 22 WP MM NOT_NAMED 1904-07-24 09:00:00 NR 20.2682 126.735 main 508 499 __________P___ -1 20.2682 126.735 7 7 323
1904202N10150 1904 22 WP MM NOT_NAMED 1904-07-24 12:00:00 NR 20.5247 126.495 main 499 495 __________P___ -1 20.5247 126.495 7 7 317
1904202N10150 1904 22 WP MM NOT_NAMED 1904-07-24 13:00:00 NR 20.6000 126.400 main 495 474 __________O___ -1 20.6000 126.400 3 8 304
1904202N10150 1904 22 WP MM NOT_NAMED 1904-07-24 15:00:00 NR 20.7399 126.149 main 474 452 __________P___ -1 20.7399 126.149 3 8 296
1904202N10150 1904 22 WP MM NOT_NAMED 1904-07-24 18:00:00 NR 20.9118 125.722 main 452 427 __________P___ -1 20.9118 125.722 3 9 291
1904202N10150 1904 22 WP MM NOT_NAMED 1904-07-24 21:00:00 NR 21.0491 125.271 main 427 406 __________P___ -1 21.0491 125.271 3 9 287
1904202N10150 1904 22 WP MM NOT_NAMED 1904-07-25 00:00:00 NR 21.1643 124.835 main 408 400 __________P___ -1 21.1643 124.835 3 8 286
1904202N10150 1904 22 WP MM NOT_NAMED 1904-07-25 01:00:00 NR 21.2000 124.700 main 400 377 __________O___ -1 21.2000 124.700 4 7 287
1904202N10150 1904 22 WP MM NOT_NAMED 1904-07-25 03:00:00 NR 21.2673 124.463 main 377 335 __________P___ -1 21.2673 124.463 4 7 287
1904202N10150 1904 22 WP MM NOT_NAMED 1904-07-25 06:00:00 NR 21.3557 124.140 main 335 304 __________P___ -1 21.3557 124.140 4 6 287
1904202N10150 1904 22 WP MM NOT_NAMED 1904-07-25 09:00:00 NR 21.4456 123.849 main 304 280 __________P___ -1 21.4456 123.849 4 6 291
1904202N10150 1904 22 WP MM NOT_NAMED 1904-07-25 12:00:00 NR 21.5556 123.584 main 280 270 __________P___ -1 21.5556 123.584 4 5 296
1904202N10150 1904 22 WP MM NOT_NAMED 1904-07-25 13:00:00 NR 21.6000 123.500 main 270 248 __________O___ -1 21.6000 123.500 4 5 302
1904202N10150 1904 22 WP MM NOT_NAMED 1904-07-25 15:00:00 NR 21.6998 123.333 main 248 220 __________P___ -1 21.6998 123.333 4 6 307
1904202N10150 1904 22 WP MM NOT_NAMED 1904-07-25 18:00:00 NR 21.8747 123.101 main 220 190 __________P___ -1 21.8747 123.101 4 6 312
1904202N10150 1904 22 WP MM NOT_NAMED 1904-07-25 21:00:00 NR 22.0797 122.883 main 190 160 __________P___ -1 22.0797 122.883 4 6 318
1904202N10150 1904 22 WP MM NOT_NAMED 1904-07-26 00:00:00 NR 22.3149 122.671 main 160 145 __________P___ -1 22.3149 122.671 4 6 321
1904202N10150 1904 22 WP MM NOT_NAMED 1904-07-26 01:00:00 NR 22.4000 122.600 main 145 116 __________O___ -1 22.4000 122.600 7 7 319
1904202N10150 1904 22 WP MM NOT_NAMED 1904-07-26 03:00:00 NR 22.5667 122.434 main 116 88 __________P___ -1 22.5667 122.434 7 7 319
1904202N10150 1904 22 WP MM NOT_NAMED 1904-07-26 06:00:00 NR 22.8418 122.186 main 88 61 __________P___ -1 22.8418 122.186 7 7 323
1904202N10150 1904 22 WP MM NOT_NAMED 1904-07-26 09:00:00 NR 23.1468 121.953 main 61 37 __________P___ -1 23.1468 121.953 7 8 328
1904202N10150 1904 22 WP MM NOT_NAMED 1904-07-26 12:00:00 NR 23.4817 121.755 main 37 23 __________P___ -1 23.4817 121.755 7 8 333
1904202N10150 1904 22 WP MM NOT_NAMED 1904-07-26 13:00:00 NR 23.6000 121.700 main 23 10 __________O___ -1 23.6000 121.700 7 7 341
1904202N10150 1904 22 WP MM NOT_NAMED 1904-07-26 15:00:00 NR 23.8331 121.628 main 10 0 __________P___ -1 23.8331 121.628 7 8 348
1904202N10150 1904 22 WP MM NOT_NAMED 1904-07-26 18:00:00 NR 24.2080 121.559 main 0 0 __________P___ -1 24.2080 121.559 7 8 352
1904202N10150 1904 22 WP MM NOT_NAMED 1904-07-26 21:00:00 NR 24.6130 121.505 main 0 0 __________P___ -1 24.6130 121.505 7 9 352
1904202N10150 1904 22 WP MM NOT_NAMED 1904-07-27 00:00:00 NR 25.0482 121.434 main 0 0 __________P___ -1 25.0482 121.434 7 9 351
1904202N10150 1904 22 WP MM NOT_NAMED 1904-07-27 01:00:00 NR 25.2000 121.400 main 0 0 __________O___ -1 25.2000 121.400 7 10 349
1904202N10150 1904 22 WP MM NOT_NAMED 1904-07-27 03:00:00 NR 25.5494 121.327 main 34 45 __________P___ -1 25.5494 121.327 7 11 348
1904202N10150 1904 22 WP MM NOT_NAMED 1904-07-27 06:00:00 NR 26.0998 121.186 main 102 81 __________P___ -1 26.0998 121.186 7 11 344
1904202N10150 1904 22 WP MM NOT_NAMED 1904-07-27 09:00:00 NR 26.6291 120.989 main 81 22 __________P___ -1 26.6291 120.989 7 11 337
1904202N10150 1904 22 WP MM NOT_NAMED 1904-07-27 12:00:00 NR 27.0783 120.713 main 22 9 __________P___ -1 27.0783 120.713 7 10 329
1904202N10150 1904 22 WP MM NOT_NAMED 1904-07-27 13:00:00 NR 27.2000 120.600 main 9 0 __________O___ -1 27.2000 120.600 7 9 313
1904202N10150 1904 22 WP MM NOT_NAMED 1904-07-27 15:00:00 NR 27.3930 120.339 main 0 0 __________P___ -1 27.3930 120.339 7 9 300
1904202N10150 1904 22 WP MM NOT_NAMED 1904-07-27 18:00:00 NR 27.5749 119.876 main 0 0 __________P___ -1 27.5749 119.876 7 9 287
1904202N10150 1904 22 WP MM NOT_NAMED 1904-07-27 21:00:00 NR 27.6624 119.351 main 0 0 __________P___ -1 27.6624 119.351 7 10 277
1904202N10150 1904 22 WP MM NOT_NAMED 1904-07-28 00:00:00 NR 27.6947 118.790 main 0 0 __________P___ -1 27.6947 118.790 7 10 273
1904202N10150 1904 22 WP MM NOT_NAMED 1904-07-28 01:00:00 NR 27.7000 118.600 main 0 __________O___ -1 27.7000 118.600 7 10 272

デジタル台風データ・検索

IBTrACS Databaseについて

本データベースは、米国NOAAが公開する1842年以降の世界の熱帯低気圧のベストトラックデータアーカイブInternational Best Track Archive for Climate Stewardship (IBTrACS)を、ウェブで閲覧しやすい形式に変換したものです。

最終更新日:2021-10-08